sensor_id;sensor_type;location;lat;lon;timestamp;P1;durP1;ratioP1;P2;durP2;ratioP2
13269;SDS011;6703;51.994;7.570;2022-08-21T00:00:22;18.67;;;4.87;;
13269;SDS011;6703;51.994;7.570;2022-08-21T00:02:51;122.97;;;75.23;;
13269;SDS011;6703;51.994;7.570;2022-08-21T00:05:23;15.35;;;6.45;;
13269;SDS011;6703;51.994;7.570;2022-08-21T00:07:53;59.38;;;32.60;;
13269;SDS011;6703;51.994;7.570;2022-08-21T00:10:22;30.65;;;13.23;;
13269;SDS011;6703;51.994;7.570;2022-08-21T00:12:50;13.30;;;5.45;;
13269;SDS011;6703;51.994;7.570;2022-08-21T00:15:21;17.13;;;5.20;;
13269;SDS011;6703;51.994;7.570;2022-08-21T00:17:53;18.20;;;4.65;;
13269;SDS011;6703;51.994;7.570;2022-08-21T00:20:22;13.90;;;4.30;;
13269;SDS011;6703;51.994;7.570;2022-08-21T00:22:52;13.77;;;5.00;;
13269;SDS011;6703;51.994;7.570;2022-08-21T00:25:22;13.17;;;4.53;;
13269;SDS011;6703;51.994;7.570;2022-08-21T00:27:51;17.67;;;4.40;;
13269;SDS011;6703;51.994;7.570;2022-08-21T00:30:21;11.18;;;4.50;;
13269;SDS011;6703;51.994;7.570;2022-08-21T00:32:50;20.60;;;4.38;;
13269;SDS011;6703;51.994;7.570;2022-08-21T00:35:21;15.55;;;4.35;;
13269;SDS011;6703;51.994;7.570;2022-08-21T00:37:50;10.93;;;4.63;;
13269;SDS011;6703;51.994;7.570;2022-08-21T00:40:23;12.63;;;4.20;;
13269;SDS011;6703;51.994;7.570;2022-08-21T00:42:53;11.85;;;4.85;;
13269;SDS011;6703;51.994;7.570;2022-08-21T00:45:21;9.43;;;3.80;;
13269;SDS011;6703;51.994;7.570;2022-08-21T00:47:49;11.73;;;4.20;;
13269;SDS011;6703;51.994;7.570;2022-08-21T00:50:19;10.57;;;4.07;;
13269;SDS011;6703;51.994;7.570;2022-08-21T00:52:48;14.10;;;4.30;;
13269;SDS011;6703;51.994;7.570;2022-08-21T00:55:18;14.45;;;4.70;;
13269;SDS011;6703;51.994;7.570;2022-08-21T01:01:30;13.52;;;5.53;;
13269;SDS011;6703;51.994;7.570;2022-08-21T01:03:58;11.88;;;5.00;;
13269;SDS011;6703;51.994;7.570;2022-08-21T01:06:27;14.45;;;5.70;;
13269;SDS011;6703;51.994;7.570;2022-08-21T01:08:55;11.90;;;4.97;;
13269;SDS011;6703;51.994;7.570;2022-08-21T01:11:24;12.15;;;5.15;;
13269;SDS011;6703;51.994;7.570;2022-08-21T01:13:52;13.95;;;5.05;;
13269;SDS011;6703;51.994;7.570;2022-08-21T01:16:21;15.38;;;4.95;;
13269;SDS011;6703;51.994;7.570;2022-08-21T01:18:51;14.50;;;5.28;;
13269;SDS011;6703;51.994;7.570;2022-08-21T01:21:21;20.48;;;5.43;;
13269;SDS011;6703;51.994;7.570;2022-08-21T01:23:55;12.20;;;5.00;;
13269;SDS011;6703;51.994;7.570;2022-08-21T01:26:26;10.48;;;4.40;;
13269;SDS011;6703;51.994;7.570;2022-08-21T01:29:00;18.40;;;5.47;;
13269;SDS011;6703;51.994;7.570;2022-08-21T01:31:34;7.68;;;4.25;;
13269;SDS011;6703;51.994;7.570;2022-08-21T01:34:02;13.80;;;4.28;;
13269;SDS011;6703;51.994;7.570;2022-08-21T01:36:32;14.52;;;5.10;;
13269;SDS011;6703;51.994;7.570;2022-08-21T01:39:01;15.30;;;5.43;;
13269;SDS011;6703;51.994;7.570;2022-08-21T01:41:30;10.15;;;5.13;;
13269;SDS011;6703;51.994;7.570;2022-08-21T01:43:59;15.57;;;6.17;;
13269;SDS011;6703;51.994;7.570;2022-08-21T01:46:27;18.15;;;6.10;;
13269;SDS011;6703;51.994;7.570;2022-08-21T01:48:56;20.50;;;5.72;;
13269;SDS011;6703;51.994;7.570;2022-08-21T01:51:25;15.43;;;5.85;;
13269;SDS011;6703;51.994;7.570;2022-08-21T01:53:58;15.05;;;5.70;;
13269;SDS011;6703;51.994;7.570;2022-08-21T01:59:55;14.70;;;5.40;;
13269;SDS011;6703;51.994;7.570;2022-08-21T02:02:24;13.90;;;5.57;;
13269;SDS011;6703;51.994;7.570;2022-08-21T02:04:52;15.90;;;5.28;;
13269;SDS011;6703;51.994;7.570;2022-08-21T02:07:21;10.65;;;4.88;;
13269;SDS011;6703;51.994;7.570;2022-08-21T02:09:51;17.52;;;6.30;;
13269;SDS011;6703;51.994;7.570;2022-08-21T02:12:21;16.98;;;6.13;;
13269;SDS011;6703;51.994;7.570;2022-08-21T02:14:49;18.30;;;5.80;;
13269;SDS011;6703;51.994;7.570;2022-08-21T02:17:18;15.65;;;6.18;;
13269;SDS011;6703;51.994;7.570;2022-08-21T02:19:46;14.20;;;5.88;;
13269;SDS011;6703;51.994;7.570;2022-08-21T02:22:14;16.13;;;5.70;;
13269;SDS011;6703;51.994;7.570;2022-08-21T02:24:42;19.27;;;6.13;;
13269;SDS011;6703;51.994;7.570;2022-08-21T02:27:21;16.80;;;6.30;;
13269;SDS011;6703;51.994;7.570;2022-08-21T02:29:52;16.42;;;5.75;;
13269;SDS011;6703;51.994;7.570;2022-08-21T02:32:21;18.95;;;6.88;;
13269;SDS011;6703;51.994;7.570;2022-08-21T02:34:48;17.48;;;6.90;;
13269;SDS011;6703;51.994;7.570;2022-08-21T02:37:18;21.05;;;6.90;;
13269;SDS011;6703;51.994;7.570;2022-08-21T02:39:46;15.15;;;6.05;;
13269;SDS011;6703;51.994;7.570;2022-08-21T02:42:15;12.27;;;6.20;;
13269;SDS011;6703;51.994;7.570;2022-08-21T02:44:46;18.02;;;6.38;;
13269;SDS011;6703;51.994;7.570;2022-08-21T02:47:14;14.68;;;6.55;;
13269;SDS011;6703;51.994;7.570;2022-08-21T02:49:42;20.92;;;6.85;;
13269;SDS011;6703;51.994;7.570;2022-08-21T02:52:10;14.77;;;5.82;;
13269;SDS011;6703;51.994;7.570;2022-08-21T02:54:38;13.13;;;6.27;;
13269;SDS011;6703;51.994;7.570;2022-08-21T02:57:06;13.38;;;6.28;;
13269;SDS011;6703;51.994;7.570;2022-08-21T02:59:34;10.55;;;5.40;;
13269;SDS011;6703;51.994;7.570;2022-08-21T03:02:07;20.10;;;6.60;;
13269;SDS011;6703;51.994;7.570;2022-08-21T03:04:37;24.90;;;8.07;;
13269;SDS011;6703;51.994;7.570;2022-08-21T03:07:11;22.40;;;9.00;;
13269;SDS011;6703;51.994;7.570;2022-08-21T03:09:39;25.02;;;10.40;;
13269;SDS011;6703;51.994;7.570;2022-08-21T03:12:20;28.10;;;10.70;;
13269;SDS011;6703;51.994;7.570;2022-08-21T03:14:49;30.63;;;11.98;;
13269;SDS011;6703;51.994;7.570;2022-08-21T03:17:22;33.20;;;11.30;;
13269;SDS011;6703;51.994;7.570;2022-08-21T03:19:56;30.05;;;11.55;;
13269;SDS011;6703;51.994;7.570;2022-08-21T03:22:25;28.83;;;11.13;;
13269;SDS011;6703;51.994;7.570;2022-08-21T03:24:56;19.83;;;10.10;;
13269;SDS011;6703;51.994;7.570;2022-08-21T03:27:25;26.52;;;9.70;;
13269;SDS011;6703;51.994;7.570;2022-08-21T03:29:55;24.73;;;9.30;;
13269;SDS011;6703;51.994;7.570;2022-08-21T03:32:27;15.63;;;8.05;;
13269;SDS011;6703;51.994;7.570;2022-08-21T03:34:57;15.82;;;7.32;;
13269;SDS011;6703;51.994;7.570;2022-08-21T03:37:26;17.67;;;7.20;;
13269;SDS011;6703;51.994;7.570;2022-08-21T03:39:54;17.60;;;7.50;;
13269;SDS011;6703;51.994;7.570;2022-08-21T03:42:24;16.17;;;7.35;;
13269;SDS011;6703;51.994;7.570;2022-08-21T03:44:53;17.60;;;7.38;;
13269;SDS011;6703;51.994;7.570;2022-08-21T03:47:25;15.60;;;8.07;;
13269;SDS011;6703;51.994;7.570;2022-08-21T03:49:54;21.70;;;9.05;;
13269;SDS011;6703;51.994;7.570;2022-08-21T03:52:23;28.30;;;10.02;;
13269;SDS011;6703;51.994;7.570;2022-08-21T03:54:51;25.40;;;9.82;;
13269;SDS011;6703;51.994;7.570;2022-08-21T03:57:20;21.53;;;9.50;;
13269;SDS011;6703;51.994;7.570;2022-08-21T03:59:48;26.63;;;9.82;;
13269;SDS011;6703;51.994;7.570;2022-08-21T04:02:17;23.90;;;9.50;;
13269;SDS011;6703;51.994;7.570;2022-08-21T04:04:48;24.10;;;10.18;;
13269;SDS011;6703;51.994;7.570;2022-08-21T04:07:17;26.73;;;10.65;;
13269;SDS011;6703;51.994;7.570;2022-08-21T04:09:45;21.20;;;10.15;;
13269;SDS011;6703;51.994;7.570;2022-08-21T04:12:13;23.33;;;9.75;;
13269;SDS011;6703;51.994;7.570;2022-08-21T04:18:21;28.50;;;11.10;;
13269;SDS011;6703;51.994;7.570;2022-08-21T04:20:53;24.98;;;11.13;;
13269;SDS011;6703;51.994;7.570;2022-08-21T04:23:25;28.67;;;11.32;;
13269;SDS011;6703;51.994;7.570;2022-08-21T04:25:55;28.55;;;12.43;;
13269;SDS011;6703;51.994;7.570;2022-08-21T04:28:25;32.78;;;13.00;;
13269;SDS011;6703;51.994;7.570;2022-08-21T04:30:58;33.00;;;13.27;;
13269;SDS011;6703;51.994;7.570;2022-08-21T04:33:26;33.45;;;14.27;;
13269;SDS011;6703;51.994;7.570;2022-08-21T04:35:55;38.40;;;14.20;;
13269;SDS011;6703;51.994;7.570;2022-08-21T04:38:24;35.20;;;14.88;;
13269;SDS011;6703;51.994;7.570;2022-08-21T04:41:01;36.78;;;15.07;;
13269;SDS011;6703;51.994;7.570;2022-08-21T04:43:31;39.23;;;16.87;;
13269;SDS011;6703;51.994;7.570;2022-08-21T04:45:59;37.13;;;15.98;;
13269;SDS011;6703;51.994;7.570;2022-08-21T04:48:28;35.17;;;15.63;;
13269;SDS011;6703;51.994;7.570;2022-08-21T04:51:01;32.72;;;15.27;;
13269;SDS011;6703;51.994;7.570;2022-08-21T04:53:32;34.70;;;14.90;;
13269;SDS011;6703;51.994;7.570;2022-08-21T04:56:02;26.10;;;13.60;;
13269;SDS011;6703;51.994;7.570;2022-08-21T04:58:34;31.15;;;14.35;;
13269;SDS011;6703;51.994;7.570;2022-08-21T05:01:04;27.55;;;13.35;;
13269;SDS011;6703;51.994;7.570;2022-08-21T05:03:35;29.63;;;14.43;;
13269;SDS011;6703;51.994;7.570;2022-08-21T05:06:06;29.02;;;13.65;;
13269;SDS011;6703;51.994;7.570;2022-08-21T05:08:35;34.50;;;14.80;;
13269;SDS011;6703;51.994;7.570;2022-08-21T05:11:05;33.25;;;15.65;;
13269;SDS011;6703;51.994;7.570;2022-08-21T05:13:35;35.33;;;16.17;;
13269;SDS011;6703;51.994;7.570;2022-08-21T05:16:03;34.28;;;16.15;;
13269;SDS011;6703;51.994;7.570;2022-08-21T05:18:31;35.63;;;15.57;;
13269;SDS011;6703;51.994;7.570;2022-08-21T05:20:59;33.55;;;15.15;;
13269;SDS011;6703;51.994;7.570;2022-08-21T05:23:29;30.17;;;14.90;;
13269;SDS011;6703;51.994;7.570;2022-08-21T05:25:57;32.87;;;14.40;;
13269;SDS011;6703;51.994;7.570;2022-08-21T05:28:25;31.88;;;14.65;;
13269;SDS011;6703;51.994;7.570;2022-08-21T05:30:55;31.08;;;14.10;;
13269;SDS011;6703;51.994;7.570;2022-08-21T05:33:23;27.23;;;13.48;;
13269;SDS011;6703;51.994;7.570;2022-08-21T05:35:52;28.20;;;13.83;;
13269;SDS011;6703;51.994;7.570;2022-08-21T05:38:23;24.23;;;12.27;;
13269;SDS011;6703;51.994;7.570;2022-08-21T05:40:55;28.90;;;12.50;;
13269;SDS011;6703;51.994;7.570;2022-08-21T05:43:24;34.28;;;13.38;;
13269;SDS011;6703;51.994;7.570;2022-08-21T05:45:52;23.67;;;12.77;;
13269;SDS011;6703;51.994;7.570;2022-08-21T05:48:20;26.52;;;12.65;;
13269;SDS011;6703;51.994;7.570;2022-08-21T05:50:51;29.05;;;11.93;;
13269;SDS011;6703;51.994;7.570;2022-08-21T05:53:21;28.20;;;12.30;;
13269;SDS011;6703;51.994;7.570;2022-08-21T05:55:50;25.13;;;12.10;;
13269;SDS011;6703;51.994;7.570;2022-08-21T05:58:20;25.23;;;11.80;;
13269;SDS011;6703;51.994;7.570;2022-08-21T06:00:50;27.67;;;11.82;;
13269;SDS011;6703;51.994;7.570;2022-08-21T06:03:20;25.85;;;10.98;;
13269;SDS011;6703;51.994;7.570;2022-08-21T06:05:50;27.45;;;11.10;;
13269;SDS011;6703;51.994;7.570;2022-08-21T06:08:20;29.00;;;11.55;;
13269;SDS011;6703;51.994;7.570;2022-08-21T06:10:49;22.40;;;10.52;;
13269;SDS011;6703;51.994;7.570;2022-08-21T06:13:21;29.23;;;10.63;;
13269;SDS011;6703;51.994;7.570;2022-08-21T06:16:00;24.13;;;11.15;;
13269;SDS011;6703;51.994;7.570;2022-08-21T06:18:29;22.35;;;10.43;;
13269;SDS011;6703;51.994;7.570;2022-08-21T06:20:58;18.55;;;10.48;;
13269;SDS011;6703;51.994;7.570;2022-08-21T06:23:26;23.83;;;11.60;;
13269;SDS011;6703;51.994;7.570;2022-08-21T06:25:58;21.50;;;10.95;;
13269;SDS011;6703;51.994;7.570;2022-08-21T06:28:30;21.42;;;10.02;;
13269;SDS011;6703;51.994;7.570;2022-08-21T06:30:59;17.30;;;9.60;;
13269;SDS011;6703;51.994;7.570;2022-08-21T06:33:29;17.58;;;8.45;;
13269;SDS011;6703;51.994;7.570;2022-08-21T06:35:59;18.48;;;8.23;;
13269;SDS011;6703;51.994;7.570;2022-08-21T06:38:28;15.63;;;7.97;;
13269;SDS011;6703;51.994;7.570;2022-08-21T06:40:56;18.25;;;8.38;;
13269;SDS011;6703;51.994;7.570;2022-08-21T06:43:29;17.92;;;8.70;;
13269;SDS011;6703;51.994;7.570;2022-08-21T06:46:05;18.25;;;7.70;;
13269;SDS011;6703;51.994;7.570;2022-08-21T06:48:34;15.67;;;7.50;;
13269;SDS011;6703;51.994;7.570;2022-08-21T06:51:03;17.90;;;6.47;;
13269;SDS011;6703;51.994;7.570;2022-08-21T06:53:32;13.73;;;5.97;;
13269;SDS011;6703;51.994;7.570;2022-08-21T06:56:00;16.70;;;6.00;;
13269;SDS011;6703;51.994;7.570;2022-08-21T06:58:33;18.63;;;6.68;;
13269;SDS011;6703;51.994;7.570;2022-08-21T07:01:01;15.60;;;5.88;;
13269;SDS011;6703;51.994;7.570;2022-08-21T07:03:30;13.87;;;5.77;;
13269;SDS011;6703;51.994;7.570;2022-08-21T07:05:59;14.63;;;5.45;;
13269;SDS011;6703;51.994;7.570;2022-08-21T07:08:27;16.05;;;5.50;;
13269;SDS011;6703;51.994;7.570;2022-08-21T07:10:56;20.50;;;5.53;;
13269;SDS011;6703;51.994;7.570;2022-08-21T07:13:26;14.93;;;5.30;;
13269;SDS011;6703;51.994;7.570;2022-08-21T07:15:58;10.77;;;4.45;;
13269;SDS011;6703;51.994;7.570;2022-08-21T07:18:30;12.02;;;4.32;;
13269;SDS011;6703;51.994;7.570;2022-08-21T07:20:58;11.52;;;4.18;;
13269;SDS011;6703;51.994;7.570;2022-08-21T07:23:29;14.32;;;4.07;;
13269;SDS011;6703;51.994;7.570;2022-08-21T07:25:59;10.95;;;4.22;;
13269;SDS011;6703;51.994;7.570;2022-08-21T07:28:28;12.73;;;4.40;;
13269;SDS011;6703;51.994;7.570;2022-08-21T07:30:57;13.13;;;4.97;;
13269;SDS011;6703;51.994;7.570;2022-08-21T07:33:30;14.60;;;4.50;;
13269;SDS011;6703;51.994;7.570;2022-08-21T07:35:59;12.20;;;4.60;;
13269;SDS011;6703;51.994;7.570;2022-08-21T07:38:28;12.80;;;4.43;;
13269;SDS011;6703;51.994;7.570;2022-08-21T07:40:56;11.07;;;4.50;;
13269;SDS011;6703;51.994;7.570;2022-08-21T07:43:28;9.45;;;4.47;;
13269;SDS011;6703;51.994;7.570;2022-08-21T07:46:00;14.82;;;4.90;;
13269;SDS011;6703;51.994;7.570;2022-08-21T07:48:28;13.77;;;4.90;;
13269;SDS011;6703;51.994;7.570;2022-08-21T07:50:57;12.88;;;4.78;;
13269;SDS011;6703;51.994;7.570;2022-08-21T07:53:25;13.77;;;5.80;;
13269;SDS011;6703;51.994;7.570;2022-08-21T07:59:26;13.52;;;6.00;;
13269;SDS011;6703;51.994;7.570;2022-08-21T08:01:56;16.08;;;6.15;;
13269;SDS011;6703;51.994;7.570;2022-08-21T08:04:26;14.02;;;5.85;;
13269;SDS011;6703;51.994;7.570;2022-08-21T08:06:55;20.55;;;6.05;;
13269;SDS011;6703;51.994;7.570;2022-08-21T08:09:22;19.05;;;6.78;;
13269;SDS011;6703;51.994;7.570;2022-08-21T08:11:50;18.90;;;6.28;;
13269;SDS011;6703;51.994;7.570;2022-08-21T08:14:21;19.25;;;6.50;;
13269;SDS011;6703;51.994;7.570;2022-08-21T08:16:58;13.65;;;5.80;;
13269;SDS011;6703;51.994;7.570;2022-08-21T08:19:26;14.18;;;5.80;;
13269;SDS011;6703;51.994;7.570;2022-08-21T08:21:53;19.37;;;6.50;;
13269;SDS011;6703;51.994;7.570;2022-08-21T08:24:21;16.80;;;6.80;;
13269;SDS011;6703;51.994;7.570;2022-08-21T08:26:51;17.70;;;6.35;;
13269;SDS011;6703;51.994;7.570;2022-08-21T08:32:59;13.95;;;5.70;;
13269;SDS011;6703;51.994;7.570;2022-08-21T08:35:29;17.25;;;6.55;;
13269;SDS011;6703;51.994;7.570;2022-08-21T08:37:58;19.27;;;6.70;;
13269;SDS011;6703;51.994;7.570;2022-08-21T08:40:29;15.98;;;5.75;;
13269;SDS011;6703;51.994;7.570;2022-08-21T08:42:59;18.83;;;6.55;;
13269;SDS011;6703;51.994;7.570;2022-08-21T08:45:27;15.60;;;5.57;;
13269;SDS011;6703;51.994;7.570;2022-08-21T08:47:58;14.07;;;5.67;;
13269;SDS011;6703;51.994;7.570;2022-08-21T08:50:33;15.18;;;5.80;;
13269;SDS011;6703;51.994;7.570;2022-08-21T08:53:11;17.92;;;6.25;;
13269;SDS011;6703;51.994;7.570;2022-08-21T08:55:43;11.50;;;5.15;;
13269;SDS011;6703;51.994;7.570;2022-08-21T09:01:45;11.23;;;4.40;;
13269;SDS011;6703;51.994;7.570;2022-08-21T09:04:16;15.38;;;4.80;;
13269;SDS011;6703;51.994;7.570;2022-08-21T09:06:51;10.88;;;4.55;;
13269;SDS011;6703;51.994;7.570;2022-08-21T09:09:26;16.80;;;4.88;;
13269;SDS011;6703;51.994;7.570;2022-08-21T09:12:00;13.23;;;4.32;;
13269;SDS011;6703;51.994;7.570;2022-08-21T09:14:36;17.38;;;5.03;;
13269;SDS011;6703;51.994;7.570;2022-08-21T09:17:13;14.03;;;4.20;;
13269;SDS011;6703;51.994;7.570;2022-08-21T09:19:53;13.45;;;3.78;;
13269;SDS011;6703;51.994;7.570;2022-08-21T09:22:30;9.48;;;3.20;;
13269;SDS011;6703;51.994;7.570;2022-08-21T09:25:04;13.95;;;3.47;;
13269;SDS011;6703;51.994;7.570;2022-08-21T09:27:37;9.30;;;2.63;;
13269;SDS011;6703;51.994;7.570;2022-08-21T09:30:07;9.33;;;2.33;;
13269;SDS011;6703;51.994;7.570;2022-08-21T09:32:37;8.07;;;2.70;;
13269;SDS011;6703;51.994;7.570;2022-08-21T09:35:10;9.40;;;2.22;;
13269;SDS011;6703;51.994;7.570;2022-08-21T09:37:49;8.57;;;2.15;;
13269;SDS011;6703;51.994;7.570;2022-08-21T09:40:23;8.48;;;2.13;;
13269;SDS011;6703;51.994;7.570;2022-08-21T09:42:59;14.70;;;2.97;;
13269;SDS011;6703;51.994;7.570;2022-08-21T09:45:28;7.25;;;2.20;;
13269;SDS011;6703;51.994;7.570;2022-08-21T09:48:09;9.15;;;2.13;;
13269;SDS011;6703;51.994;7.570;2022-08-21T09:50:42;13.38;;;2.03;;
13269;SDS011;6703;51.994;7.570;2022-08-21T09:53:17;8.10;;;2.00;;
13269;SDS011;6703;51.994;7.570;2022-08-21T09:59:24;7.50;;;2.13;;
13269;SDS011;6703;51.994;7.570;2022-08-21T10:01:59;10.63;;;2.65;;
13269;SDS011;6703;51.994;7.570;2022-08-21T10:04:29;7.65;;;1.85;;
13269;SDS011;6703;51.994;7.570;2022-08-21T10:09:43;7.82;;;1.92;;
13269;SDS011;6703;51.994;7.570;2022-08-21T10:12:13;5.60;;;2.33;;
13269;SDS011;6703;51.994;7.570;2022-08-21T10:14:49;6.93;;;1.90;;
13269;SDS011;6703;51.994;7.570;2022-08-21T10:17:23;6.70;;;2.00;;
13269;SDS011;6703;51.994;7.570;2022-08-21T10:19:59;6.45;;;1.70;;
13269;SDS011;6703;51.994;7.570;2022-08-21T10:22:37;7.50;;;2.25;;
13269;SDS011;6703;51.994;7.570;2022-08-21T10:25:12;5.15;;;1.38;;
13269;SDS011;6703;51.994;7.570;2022-08-21T10:27:47;4.53;;;1.38;;
13269;SDS011;6703;51.994;7.570;2022-08-21T10:30:26;5.40;;;1.20;;
13269;SDS011;6703;51.994;7.570;2022-08-21T10:35:52;7.47;;;1.40;;
13269;SDS011;6703;51.994;7.570;2022-08-21T10:38:49;5.20;;;1.20;;
13269;SDS011;6703;51.994;7.570;2022-08-21T10:41:49;5.88;;;1.30;;
13269;SDS011;6703;51.994;7.570;2022-08-21T10:44:30;6.82;;;1.50;;
13269;SDS011;6703;51.994;7.570;2022-08-21T10:47:02;5.95;;;1.40;;
13269;SDS011;6703;51.994;7.570;2022-08-21T10:49:36;5.32;;;1.85;;
13269;SDS011;6703;51.994;7.570;2022-08-21T10:52:19;4.57;;;1.40;;
13269;SDS011;6703;51.994;7.570;2022-08-21T10:54:57;8.60;;;1.42;;
13269;SDS011;6703;51.994;7.570;2022-08-21T10:57:31;8.00;;;1.45;;
13269;SDS011;6703;51.994;7.570;2022-08-21T11:00:10;5.13;;;1.15;;
13269;SDS011;6703;51.994;7.570;2022-08-21T11:02:42;3.88;;;1.20;;
13269;SDS011;6703;51.994;7.570;2022-08-21T11:05:13;6.78;;;1.40;;
13269;SDS011;6703;51.994;7.570;2022-08-21T11:07:45;6.35;;;1.23;;
13269;SDS011;6703;51.994;7.570;2022-08-21T11:10:19;5.35;;;1.70;;
13269;SDS011;6703;51.994;7.570;2022-08-21T11:12:52;5.53;;;1.10;;
13269;SDS011;6703;51.994;7.570;2022-08-21T11:15:33;5.43;;;0.98;;
13269;SDS011;6703;51.994;7.570;2022-08-21T11:18:10;2.95;;;1.00;;
13269;SDS011;6703;51.994;7.570;2022-08-21T11:20:47;5.50;;;0.90;;
13269;SDS011;6703;51.994;7.570;2022-08-21T11:23:18;2.65;;;0.90;;
13269;SDS011;6703;51.994;7.570;2022-08-21T11:25:52;3.28;;;1.02;;
13269;SDS011;6703;51.994;7.570;2022-08-21T11:28:23;5.72;;;1.20;;
13269;SDS011;6703;51.994;7.570;2022-08-21T11:30:56;6.65;;;1.67;;
13269;SDS011;6703;51.994;7.570;2022-08-21T11:33:34;10.35;;;3.35;;
13269;SDS011;6703;51.994;7.570;2022-08-21T11:36:11;11.13;;;4.18;;
13269;SDS011;6703;51.994;7.570;2022-08-21T11:38:44;8.57;;;3.17;;
13269;SDS011;6703;51.994;7.570;2022-08-21T11:44:06;7.68;;;2.00;;
13269;SDS011;6703;51.994;7.570;2022-08-21T11:46:40;6.72;;;2.80;;
13269;SDS011;6703;51.994;7.570;2022-08-21T11:49:23;5.80;;;1.80;;
13269;SDS011;6703;51.994;7.570;2022-08-21T11:52:01;10.20;;;2.23;;
13269;SDS011;6703;51.994;7.570;2022-08-21T11:54:36;5.17;;;1.33;;
13269;SDS011;6703;51.994;7.570;2022-08-21T11:57:11;5.60;;;0.90;;
13269;SDS011;6703;51.994;7.570;2022-08-21T11:59:43;7.73;;;2.20;;
13269;SDS011;6703;51.994;7.570;2022-08-21T12:02:21;6.43;;;1.42;;
13269;SDS011;6703;51.994;7.570;2022-08-21T12:04:54;7.18;;;1.40;;
13269;SDS011;6703;51.994;7.570;2022-08-21T12:07:33;5.32;;;1.55;;
13269;SDS011;6703;51.994;7.570;2022-08-21T12:10:04;7.93;;;1.20;;
13269;SDS011;6703;51.994;7.570;2022-08-21T12:12:35;5.25;;;1.48;;
13269;SDS011;6703;51.994;7.570;2022-08-21T12:15:15;5.40;;;1.52;;
13269;SDS011;6703;51.994;7.570;2022-08-21T12:17:52;3.47;;;0.80;;
13269;SDS011;6703;51.994;7.570;2022-08-21T12:20:36;10.85;;;5.00;;
13269;SDS011;6703;51.994;7.570;2022-08-21T12:23:23;5.97;;;1.40;;
13269;SDS011;6703;51.994;7.570;2022-08-21T12:29:02;7.90;;;1.42;;
13269;SDS011;6703;51.994;7.570;2022-08-21T12:31:33;4.53;;;1.35;;
13269;SDS011;6703;51.994;7.570;2022-08-21T12:34:04;4.37;;;1.20;;
13269;SDS011;6703;51.994;7.570;2022-08-21T12:36:40;4.68;;;0.95;;
13269;SDS011;6703;51.994;7.570;2022-08-21T12:39:11;5.60;;;1.80;;
13269;SDS011;6703;51.994;7.570;2022-08-21T12:41:44;3.92;;;0.85;;
13269;SDS011;6703;51.994;7.570;2022-08-21T12:44:22;5.28;;;1.00;;
13269;SDS011;6703;51.994;7.570;2022-08-21T12:46:55;6.35;;;1.98;;
13269;SDS011;6703;51.994;7.570;2022-08-21T12:49:26;3.95;;;1.30;;
13269;SDS011;6703;51.994;7.570;2022-08-21T12:51:57;5.20;;;2.00;;
13269;SDS011;6703;51.994;7.570;2022-08-21T12:54:30;4.95;;;1.27;;
13269;SDS011;6703;51.994;7.570;2022-08-21T12:57:00;6.78;;;3.10;;
13269;SDS011;6703;51.994;7.570;2022-08-21T12:59:31;10.82;;;3.22;;
13269;SDS011;6703;51.994;7.570;2022-08-21T13:02:00;5.10;;;0.90;;
13269;SDS011;6703;51.994;7.570;2022-08-21T13:04:32;3.92;;;1.25;;
13269;SDS011;6703;51.994;7.570;2022-08-21T13:07:04;4.25;;;1.33;;
13269;SDS011;6703;51.994;7.570;2022-08-21T13:09:35;4.72;;;1.50;;
13269;SDS011;6703;51.994;7.570;2022-08-21T13:12:06;3.92;;;1.05;;
13269;SDS011;6703;51.994;7.570;2022-08-21T13:14:40;3.55;;;0.93;;
13269;SDS011;6703;51.994;7.570;2022-08-21T13:17:11;4.20;;;1.30;;
13269;SDS011;6703;51.994;7.570;2022-08-21T13:19:55;4.75;;;1.17;;
13269;SDS011;6703;51.994;7.570;2022-08-21T13:22:24;4.75;;;1.10;;
13269;SDS011;6703;51.994;7.570;2022-08-21T13:25:00;3.65;;;1.60;;
13269;SDS011;6703;51.994;7.570;2022-08-21T13:27:33;10.15;;;3.90;;
13269;SDS011;6703;51.994;7.570;2022-08-21T13:30:17;3.67;;;1.60;;
13269;SDS011;6703;51.994;7.570;2022-08-21T13:36:21;4.10;;;1.00;;
13269;SDS011;6703;51.994;7.570;2022-08-21T13:38:52;5.75;;;2.03;;
13269;SDS011;6703;51.994;7.570;2022-08-21T13:41:22;8.38;;;2.90;;
13269;SDS011;6703;51.994;7.570;2022-08-21T13:43:56;4.40;;;1.85;;
13269;SDS011;6703;51.994;7.570;2022-08-21T13:46:28;6.60;;;2.50;;
13269;SDS011;6703;51.994;7.570;2022-08-21T13:48:59;3.10;;;1.63;;
13269;SDS011;6703;51.994;7.570;2022-08-21T13:51:29;7.47;;;2.10;;
13269;SDS011;6703;51.994;7.570;2022-08-21T13:54:00;5.28;;;2.22;;
13269;SDS011;6703;51.994;7.570;2022-08-21T13:56:29;5.03;;;1.65;;
13269;SDS011;6703;51.994;7.570;2022-08-21T13:59:00;7.55;;;2.80;;
13269;SDS011;6703;51.994;7.570;2022-08-21T14:01:32;8.57;;;3.20;;
13269;SDS011;6703;51.994;7.570;2022-08-21T14:04:04;3.00;;;1.03;;
13269;SDS011;6703;51.994;7.570;2022-08-21T14:06:35;6.78;;;3.22;;
13269;SDS011;6703;51.994;7.570;2022-08-21T14:09:07;7.03;;;2.40;;
13269;SDS011;6703;51.994;7.570;2022-08-21T14:11:36;3.75;;;1.33;;
13269;SDS011;6703;51.994;7.570;2022-08-21T14:14:05;8.85;;;3.72;;
13269;SDS011;6703;51.994;7.570;2022-08-21T14:16:52;14.25;;;6.20;;
13269;SDS011;6703;51.994;7.570;2022-08-21T14:19:23;3.70;;;0.90;;
13269;SDS011;6703;51.994;7.570;2022-08-21T14:21:52;6.25;;;1.80;;
13269;SDS011;6703;51.994;7.570;2022-08-21T14:24:25;7.22;;;1.95;;
13269;SDS011;6703;51.994;7.570;2022-08-21T14:26:56;5.30;;;1.63;;
13269;SDS011;6703;51.994;7.570;2022-08-21T14:29:26;2.73;;;1.23;;
13269;SDS011;6703;51.994;7.570;2022-08-21T14:32:10;4.72;;;1.73;;
13269;SDS011;6703;51.994;7.570;2022-08-21T14:34:51;6.05;;;1.95;;
13269;SDS011;6703;51.994;7.570;2022-08-21T14:37:20;6.47;;;1.65;;
13269;SDS011;6703;51.994;7.570;2022-08-21T14:39:49;3.90;;;1.43;;
13269;SDS011;6703;51.994;7.570;2022-08-21T14:42:17;7.60;;;2.25;;
13269;SDS011;6703;51.994;7.570;2022-08-21T14:44:45;5.40;;;1.83;;
13269;SDS011;6703;51.994;7.570;2022-08-21T14:47:14;3.28;;;0.80;;
13269;SDS011;6703;51.994;7.570;2022-08-21T14:49:42;3.23;;;0.90;;
13269;SDS011;6703;51.994;7.570;2022-08-21T14:52:10;3.63;;;1.05;;
13269;SDS011;6703;51.994;7.570;2022-08-21T14:54:39;8.23;;;2.60;;
13269;SDS011;6703;51.994;7.570;2022-08-21T14:57:08;4.55;;;1.02;;
13269;SDS011;6703;51.994;7.570;2022-08-21T14:59:39;11.10;;;5.67;;
13269;SDS011;6703;51.994;7.570;2022-08-21T15:02:07;3.38;;;1.05;;
13269;SDS011;6703;51.994;7.570;2022-08-21T15:04:37;3.67;;;1.05;;
13269;SDS011;6703;51.994;7.570;2022-08-21T15:07:05;5.73;;;2.07;;
13269;SDS011;6703;51.994;7.570;2022-08-21T15:09:34;3.90;;;1.30;;
13269;SDS011;6703;51.994;7.570;2022-08-21T15:12:03;4.88;;;1.27;;
13269;SDS011;6703;51.994;7.570;2022-08-21T15:14:32;3.28;;;1.25;;
13269;SDS011;6703;51.994;7.570;2022-08-21T15:17:02;4.22;;;1.05;;
13269;SDS011;6703;51.994;7.570;2022-08-21T15:19:32;6.73;;;1.30;;
13269;SDS011;6703;51.994;7.570;2022-08-21T15:22:01;2.90;;;0.65;;
13269;SDS011;6703;51.994;7.570;2022-08-21T15:24:40;6.10;;;0.93;;
13269;SDS011;6703;51.994;7.570;2022-08-21T15:27:09;2.87;;;0.87;;
13269;SDS011;6703;51.994;7.570;2022-08-21T15:29:42;2.83;;;1.17;;
13269;SDS011;6703;51.994;7.570;2022-08-21T15:32:18;4.70;;;1.50;;
13269;SDS011;6703;51.994;7.570;2022-08-21T15:34:49;3.67;;;1.38;;
13269;SDS011;6703;51.994;7.570;2022-08-21T15:37:23;3.70;;;1.03;;
13269;SDS011;6703;51.994;7.570;2022-08-21T15:39:52;3.60;;;1.37;;
13269;SDS011;6703;51.994;7.570;2022-08-21T15:42:21;4.35;;;1.90;;
13269;SDS011;6703;51.994;7.570;2022-08-21T15:44:50;10.60;;;4.78;;
13269;SDS011;6703;51.994;7.570;2022-08-21T15:47:19;8.48;;;3.53;;
13269;SDS011;6703;51.994;7.570;2022-08-21T15:49:50;5.05;;;0.80;;
13269;SDS011;6703;51.994;7.570;2022-08-21T15:52:20;2.28;;;0.90;;
13269;SDS011;6703;51.994;7.570;2022-08-21T15:54:50;4.28;;;1.70;;